sensor_id;sensor_type;location;lat;lon;timestamp;pressure;altitude;pressure_sealevel;temperature;humidity
39223;BME280;24936;46.328;11.026;2023-04-24T00:02:20;93449.66;;;8.67;100.00
39223;BME280;24936;46.328;11.026;2023-04-24T00:04:45;93452.59;;;8.64;100.00
39223;BME280;24936;46.328;11.026;2023-04-24T00:07:11;93439.03;;;8.50;100.00
39223;BME280;24936;46.328;11.026;2023-04-24T00:09:38;93442.84;;;8.38;100.00
39223;BME280;24936;46.328;11.026;2023-04-24T00:12:03;93440.69;;;8.33;100.00
39223;BME280;24936;46.328;11.026;2023-04-24T00:14:30;93447.34;;;8.27;100.00
39223;BME280;24936;46.328;11.026;2023-04-24T00:16:56;93447.66;;;8.24;100.00
39223;BME280;24936;46.328;11.026;2023-04-24T00:19:22;93449.81;;;8.29;100.00
39223;BME280;24936;46.328;11.026;2023-04-24T00:21:47;93450.03;;;8.36;100.00
39223;BME280;24936;46.328;11.026;2023-04-24T00:24:16;93449.34;;;8.34;100.00
39223;BME280;24936;46.328;11.026;2023-04-24T00:26:41;93442.00;;;8.37;100.00
39223;BME280;24936;46.328;11.026;2023-04-24T00:29:07;93438.66;;;8.63;100.00
39223;BME280;24936;46.328;11.026;2023-04-24T00:31:32;93430.38;;;8.76;100.00
39223;BME280;24936;46.328;11.026;2023-04-24T00:34:00;93431.16;;;8.50;100.00
39223;BME280;24936;46.328;11.026;2023-04-24T00:36:26;93426.81;;;8.41;100.00
39223;BME280;24936;46.328;11.026;2023-04-24T00:38:53;93416.56;;;8.48;100.00
39223;BME280;24936;46.328;11.026;2023-04-24T00:41:18;93417.22;;;8.50;100.00
39223;BME280;24936;46.328;11.026;2023-04-24T00:43:44;93408.59;;;8.57;100.00
39223;BME280;24936;46.328;11.026;2023-04-24T00:46:11;93413.28;;;8.72;100.00
39223;BME280;24936;46.328;11.026;2023-04-24T00:48:39;93406.72;;;8.68;100.00
39223;BME280;24936;46.328;11.026;2023-04-24T00:51:04;93398.72;;;8.51;100.00
39223;BME280;24936;46.328;11.026;2023-04-24T00:53:30;93410.41;;;8.39;100.00
39223;BME280;24936;46.328;11.026;2023-04-24T00:55:56;93398.56;;;8.35;100.00
39223;BME280;24936;46.328;11.026;2023-04-24T00:58:22;93396.78;;;8.35;100.00
39223;BME280;24936;46.328;11.026;2023-04-24T01:00:49;93391.16;;;8.48;100.00
39223;BME280;24936;46.328;11.026;2023-04-24T01:03:22;93386.66;;;8.85;100.00
39223;BME280;24936;46.328;11.026;2023-04-24T01:05:50;93384.00;;;8.77;100.00
39223;BME280;24936;46.328;11.026;2023-04-24T01:08:16;93384.50;;;8.80;100.00
39223;BME280;24936;46.328;11.026;2023-04-24T01:10:43;93389.22;;;8.77;100.00
39223;BME280;24936;46.328;11.026;2023-04-24T01:13:10;93384.59;;;8.70;100.00
39223;BME280;24936;46.328;11.026;2023-04-24T01:15:35;93381.28;;;8.68;100.00
39223;BME280;24936;46.328;11.026;2023-04-24T01:18:01;93370.00;;;8.68;100.00
39223;BME280;24936;46.328;11.026;2023-04-24T01:20:27;93373.59;;;8.67;100.00
39223;BME280;24936;46.328;11.026;2023-04-24T01:22:57;93363.50;;;8.54;100.00
39223;BME280;24936;46.328;11.026;2023-04-24T01:25:23;93358.03;;;8.47;100.00
39223;BME280;24936;46.328;11.026;2023-04-24T01:27:49;93362.38;;;8.56;100.00
39223;BME280;24936;46.328;11.026;2023-04-24T01:30:15;93349.41;;;8.81;100.00
39223;BME280;24936;46.328;11.026;2023-04-24T01:32:41;93343.09;;;8.66;100.00
39223;BME280;24936;46.328;11.026;2023-04-24T01:35:09;93346.41;;;8.50;100.00
39223;BME280;24936;46.328;11.026;2023-04-24T01:37:35;93333.69;;;8.55;100.00
39223;BME280;24936;46.328;11.026;2023-04-24T01:40:04;93331.06;;;8.55;100.00
39223;BME280;24936;46.328;11.026;2023-04-24T01:42:30;93333.84;;;8.53;100.00
39223;BME280;24936;46.328;11.026;2023-04-24T01:44:56;93335.84;;;8.60;100.00
39223;BME280;24936;46.328;11.026;2023-04-24T01:47:22;93331.25;;;8.62;100.00
39223;BME280;24936;46.328;11.026;2023-04-24T01:49:48;93336.16;;;8.56;100.00
39223;BME280;24936;46.328;11.026;2023-04-24T01:52:15;93334.34;;;8.57;100.00
39223;BME280;24936;46.328;11.026;2023-04-24T01:54:41;93324.63;;;8.49;100.00
39223;BME280;24936;46.328;11.026;2023-04-24T01:57:07;93333.16;;;8.51;100.00
39223;BME280;24936;46.328;11.026;2023-04-24T01:59:33;93330.91;;;8.56;100.00
39223;BME280;24936;46.328;11.026;2023-04-24T02:01:59;93333.00;;;8.53;100.00
39223;BME280;24936;46.328;11.026;2023-04-24T02:04:25;93327.69;;;8.45;100.00
39223;BME280;24936;46.328;11.026;2023-04-24T02:06:50;93322.59;;;8.43;100.00
39223;BME280;24936;46.328;11.026;2023-04-24T02:09:16;93317.34;;;8.43;100.00
39223;BME280;24936;46.328;11.026;2023-04-24T02:11:42;93319.97;;;8.43;100.00
39223;BME280;24936;46.328;11.026;2023-04-24T02:14:07;93313.53;;;8.55;100.00
39223;BME280;24936;46.328;11.026;2023-04-24T02:16:33;93318.66;;;8.65;100.00
39223;BME280;24936;46.328;11.026;2023-04-24T02:18:59;93315.25;;;8.47;100.00
39223;BME280;24936;46.328;11.026;2023-04-24T02:21:24;93302.63;;;8.42;100.00
39223;BME280;24936;46.328;11.026;2023-04-24T02:23:50;93306.50;;;8.38;100.00
39223;BME280;24936;46.328;11.026;2023-04-24T02:26:16;93301.56;;;8.35;100.00
39223;BME280;24936;46.328;11.026;2023-04-24T02:28:41;93301.06;;;8.31;100.00
39223;BME280;24936;46.328;11.026;2023-04-24T02:31:07;93297.47;;;8.32;100.00
39223;BME280;24936;46.328;11.026;2023-04-24T02:33:32;93290.88;;;8.28;100.00
39223;BME280;24936;46.328;11.026;2023-04-24T02:35:57;93292.22;;;8.32;100.00
39223;BME280;24936;46.328;11.026;2023-04-24T02:38:23;93294.19;;;8.30;100.00
39223;BME280;24936;46.328;11.026;2023-04-24T02:40:48;93292.69;;;8.27;100.00
39223;BME280;24936;46.328;11.026;2023-04-24T02:43:14;93292.72;;;8.36;100.00
39223;BME280;24936;46.328;11.026;2023-04-24T02:45:39;93294.75;;;8.42;100.00
39223;BME280;24936;46.328;11.026;2023-04-24T02:51:30;93286.47;;;8.55;100.00
39223;BME280;24936;46.328;11.026;2023-04-24T02:53:56;93282.06;;;8.55;100.00
39223;BME280;24936;46.328;11.026;2023-04-24T02:56:21;93286.50;;;8.37;100.00
39223;BME280;24936;46.328;11.026;2023-04-24T02:58:47;93279.63;;;8.36;100.00
39223;BME280;24936;46.328;11.026;2023-04-24T03:01:12;93279.06;;;8.50;100.00
39223;BME280;24936;46.328;11.026;2023-04-24T03:03:39;93267.44;;;8.53;100.00
39223;BME280;24936;46.328;11.026;2023-04-24T03:06:05;93272.94;;;8.41;100.00
39223;BME280;24936;46.328;11.026;2023-04-24T03:08:31;93266.72;;;8.42;100.00
39223;BME280;24936;46.328;11.026;2023-04-24T03:10:57;93269.50;;;8.41;100.00
39223;BME280;24936;46.328;11.026;2023-04-24T03:13:22;93256.94;;;8.53;100.00
39223;BME280;24936;46.328;11.026;2023-04-24T03:15:48;93262.94;;;8.63;100.00
39223;BME280;24936;46.328;11.026;2023-04-24T03:18:13;93250.59;;;8.55;100.00
39223;BME280;24936;46.328;11.026;2023-04-24T03:20:39;93251.16;;;8.41;100.00
39223;BME280;24936;46.328;11.026;2023-04-24T03:23:05;93257.84;;;8.35;100.00
39223;BME280;24936;46.328;11.026;2023-04-24T03:25:30;93254.00;;;8.30;100.00
39223;BME280;24936;46.328;11.026;2023-04-24T03:27:56;93252.13;;;8.40;100.00
39223;BME280;24936;46.328;11.026;2023-04-24T03:30:21;93251.78;;;8.43;100.00
39223;BME280;24936;46.328;11.026;2023-04-24T03:32:47;93254.69;;;8.32;100.00
39223;BME280;24936;46.328;11.026;2023-04-24T03:35:12;93258.69;;;8.44;100.00
39223;BME280;24936;46.328;11.026;2023-04-24T03:37:38;93252.63;;;8.44;100.00
39223;BME280;24936;46.328;11.026;2023-04-24T03:40:03;93260.31;;;8.45;100.00
39223;BME280;24936;46.328;11.026;2023-04-24T03:42:31;93258.28;;;8.49;100.00
39223;BME280;24936;46.328;11.026;2023-04-24T03:44:56;93266.88;;;8.41;100.00
39223;BME280;24936;46.328;11.026;2023-04-24T03:47:22;93271.28;;;8.40;100.00
39223;BME280;24936;46.328;11.026;2023-04-24T03:49:47;93283.38;;;8.33;100.00
39223;BME280;24936;46.328;11.026;2023-04-24T03:52:13;93290.56;;;8.31;100.00
39223;BME280;24936;46.328;11.026;2023-04-24T03:54:38;93298.91;;;8.26;100.00
39223;BME280;24936;46.328;11.026;2023-04-24T03:57:04;93293.13;;;8.23;100.00
39223;BME280;24936;46.328;11.026;2023-04-24T03:59:30;93310.00;;;8.20;100.00
39223;BME280;24936;46.328;11.026;2023-04-24T04:01:56;93315.91;;;7.78;100.00
39223;BME280;24936;46.328;11.026;2023-04-24T04:04:21;93327.69;;;7.46;92.24
39223;BME280;24936;46.328;11.026;2023-04-24T04:06:46;93328.34;;;7.12;90.58
39223;BME280;24936;46.328;11.026;2023-04-24T04:09:12;93333.13;;;6.88;90.86
39223;BME280;24936;46.328;11.026;2023-04-24T04:11:37;93340.84;;;6.90;88.50
39223;BME280;24936;46.328;11.026;2023-04-24T04:14:03;93345.22;;;6.62;91.42
39223;BME280;24936;46.328;11.026;2023-04-24T04:16:29;93350.09;;;6.47;93.13
39223;BME280;24936;46.328;11.026;2023-04-24T04:18:54;93344.72;;;6.48;91.02
39223;BME280;24936;46.328;11.026;2023-04-24T04:21:20;93361.78;;;6.52;92.02
39223;BME280;24936;46.328;11.026;2023-04-24T04:23:46;93374.88;;;6.42;93.86
39223;BME280;24936;46.328;11.026;2023-04-24T04:26:11;93371.16;;;6.35;94.77
39223;BME280;24936;46.328;11.026;2023-04-24T04:28:38;93387.94;;;6.42;95.90
39223;BME280;24936;46.328;11.026;2023-04-24T04:31:06;93393.72;;;6.36;96.65
39223;BME280;24936;46.328;11.026;2023-04-24T04:33:33;93404.84;;;6.38;97.59
39223;BME280;24936;46.328;11.026;2023-04-24T04:35:59;93413.66;;;6.27;98.24
39223;BME280;24936;46.328;11.026;2023-04-24T04:38:25;93420.41;;;6.20;98.37
39223;BME280;24936;46.328;11.026;2023-04-24T04:40:55;93429.75;;;6.23;98.61
39223;BME280;24936;46.328;11.026;2023-04-24T04:43:24;93435.25;;;6.39;99.28
39223;BME280;24936;46.328;11.026;2023-04-24T04:45:51;93442.28;;;6.39;99.32
39223;BME280;24936;46.328;11.026;2023-04-24T04:48:17;93451.34;;;6.25;99.07
39223;BME280;24936;46.328;11.026;2023-04-24T04:50:44;93460.69;;;6.27;99.26
39223;BME280;24936;46.328;11.026;2023-04-24T04:53:09;93466.91;;;6.17;99.23
39223;BME280;24936;46.328;11.026;2023-04-24T04:55:36;93473.63;;;6.00;98.81
39223;BME280;24936;46.328;11.026;2023-04-24T04:58:01;93482.84;;;6.04;99.16
39223;BME280;24936;46.328;11.026;2023-04-24T05:00:27;93488.31;;;6.01;98.78
39223;BME280;24936;46.328;11.026;2023-04-24T05:02:54;93485.03;;;5.99;98.48
39223;BME280;24936;46.328;11.026;2023-04-24T05:05:19;93495.34;;;6.00;98.73
39223;BME280;24936;46.328;11.026;2023-04-24T05:07:45;93491.22;;;5.97;98.61
39223;BME280;24936;46.328;11.026;2023-04-24T05:10:11;93492.84;;;5.89;99.04
39223;BME280;24936;46.328;11.026;2023-04-24T05:12:36;93488.97;;;5.93;99.50
39223;BME280;24936;46.328;11.026;2023-04-24T05:15:02;93497.38;;;5.87;99.59
39223;BME280;24936;46.328;11.026;2023-04-24T05:17:28;93495.44;;;5.89;99.87
39223;BME280;24936;46.328;11.026;2023-04-24T05:19:54;93497.91;;;5.90;100.00
39223;BME280;24936;46.328;11.026;2023-04-24T05:22:19;93506.63;;;6.01;100.00
39223;BME280;24936;46.328;11.026;2023-04-24T05:24:46;93506.19;;;5.95;100.00
39223;BME280;24936;46.328;11.026;2023-04-24T05:27:11;93511.47;;;6.05;100.00
39223;BME280;24936;46.328;11.026;2023-04-24T05:29:36;93517.91;;;6.01;100.00
39223;BME280;24936;46.328;11.026;2023-04-24T05:32:02;93518.03;;;6.00;100.00
39223;BME280;24936;46.328;11.026;2023-04-24T05:34:27;93507.66;;;5.88;100.00
39223;BME280;24936;46.328;11.026;2023-04-24T05:36:53;93518.13;;;5.88;100.00
39223;BME280;24936;46.328;11.026;2023-04-24T05:39:18;93518.13;;;5.88;100.00
39223;BME280;24936;46.328;11.026;2023-04-24T05:41:45;93520.19;;;5.85;100.00
39223;BME280;24936;46.328;11.026;2023-04-24T05:44:10;93520.59;;;5.90;100.00
39223;BME280;24936;46.328;11.026;2023-04-24T05:46:36;93523.47;;;5.87;100.00
39223;BME280;24936;46.328;11.026;2023-04-24T05:49:02;93527.59;;;5.89;100.00
39223;BME280;24936;46.328;11.026;2023-04-24T05:51:28;93535.38;;;6.10;100.00
39223;BME280;24936;46.328;11.026;2023-04-24T05:53:53;93541.16;;;6.04;100.00
39223;BME280;24936;46.328;11.026;2023-04-24T05:56:19;93537.25;;;5.99;100.00
39223;BME280;24936;46.328;11.026;2023-04-24T05:58:45;93535.72;;;5.96;100.00
39223;BME280;24936;46.328;11.026;2023-04-24T06:01:12;93537.63;;;5.94;100.00
39223;BME280;24936;46.328;11.026;2023-04-24T06:03:38;93539.63;;;6.02;100.00
39223;BME280;24936;46.328;11.026;2023-04-24T06:06:05;93545.00;;;6.10;100.00
39223;BME280;24936;46.328;11.026;2023-04-24T06:08:31;93533.03;;;6.07;100.00
39223;BME280;24936;46.328;11.026;2023-04-24T06:10:57;93548.16;;;6.14;100.00
39223;BME280;24936;46.328;11.026;2023-04-24T06:13:22;93542.00;;;6.15;100.00
39223;BME280;24936;46.328;11.026;2023-04-24T06:15:47;93545.56;;;6.14;100.00
39223;BME280;24936;46.328;11.026;2023-04-24T06:18:13;93550.25;;;6.20;100.00
39223;BME280;24936;46.328;11.026;2023-04-24T06:20:38;93548.59;;;6.28;100.00
39223;BME280;24936;46.328;11.026;2023-04-24T06:23:04;93543.91;;;6.42;100.00
39223;BME280;24936;46.328;11.026;2023-04-24T06:25:30;93540.38;;;6.33;100.00
39223;BME280;24936;46.328;11.026;2023-04-24T06:27:55;93534.56;;;6.20;100.00
39223;BME280;24936;46.328;11.026;2023-04-24T06:30:21;93527.63;;;5.99;100.00
39223;BME280;24936;46.328;11.026;2023-04-24T06:32:47;93529.53;;;5.97;100.00
39223;BME280;24936;46.328;11.026;2023-04-24T06:35:12;93535.59;;;5.97;100.00
39223;BME280;24936;46.328;11.026;2023-04-24T06:37:42;93535.34;;;6.01;100.00
39223;BME280;24936;46.328;11.026;2023-04-24T06:40:08;93537.59;;;6.05;100.00
39223;BME280;24936;46.328;11.026;2023-04-24T06:42:35;93543.75;;;6.04;100.00
39223;BME280;24936;46.328;11.026;2023-04-24T06:45:01;93536.97;;;5.92;100.00
39223;BME280;24936;46.328;11.026;2023-04-24T06:47:26;93531.88;;;5.90;100.00
39223;BME280;24936;46.328;11.026;2023-04-24T06:49:52;93538.03;;;5.89;100.00
39223;BME280;24936;46.328;11.026;2023-04-24T06:52:19;93544.50;;;5.85;100.00
39223;BME280;24936;46.328;11.026;2023-04-24T06:54:44;93538.91;;;6.00;100.00
39223;BME280;24936;46.328;11.026;2023-04-24T06:57:10;93529.44;;;6.08;100.00
39223;BME280;24936;46.328;11.026;2023-04-24T06:59:36;93535.53;;;6.09;100.00
39223;BME280;24936;46.328;11.026;2023-04-24T07:02:02;93533.03;;;6.07;100.00
39223;BME280;24936;46.328;11.026;2023-04-24T07:04:28;93534.28;;;6.23;100.00
39223;BME280;24936;46.328;11.026;2023-04-24T07:06:54;93516.41;;;6.28;99.80
39223;BME280;24936;46.328;11.026;2023-04-24T07:09:21;93519.88;;;6.48;99.61
39223;BME280;24936;46.328;11.026;2023-04-24T07:11:47;93523.59;;;6.46;99.00
39223;BME280;24936;46.328;11.026;2023-04-24T07:14:13;93518.34;;;6.46;98.70
39223;BME280;24936;46.328;11.026;2023-04-24T07:16:39;93512.03;;;6.68;98.64
39223;BME280;24936;46.328;11.026;2023-04-24T07:19:05;93507.75;;;6.67;97.95
39223;BME280;24936;46.328;11.026;2023-04-24T07:21:31;93505.66;;;6.70;97.39
39223;BME280;24936;46.328;11.026;2023-04-24T07:24:00;93508.69;;;6.76;97.64
39223;BME280;24936;46.328;11.026;2023-04-24T07:26:28;93505.50;;;6.82;97.11
39223;BME280;24936;46.328;11.026;2023-04-24T07:28:53;93499.03;;;6.86;96.42
39223;BME280;24936;46.328;11.026;2023-04-24T07:31:20;93499.13;;;7.04;96.38
39223;BME280;24936;46.328;11.026;2023-04-24T07:33:46;93487.59;;;7.34;96.75
39223;BME280;24936;46.328;11.026;2023-04-24T07:36:12;93484.78;;;7.46;95.85
39223;BME280;24936;46.328;11.026;2023-04-24T07:38:42;93482.84;;;7.48;95.00
39223;BME280;24936;46.328;11.026;2023-04-24T07:41:07;93469.03;;;7.56;93.49
39223;BME280;24936;46.328;11.026;2023-04-24T07:43:33;93470.56;;;7.58;92.99
39223;BME280;24936;46.328;11.026;2023-04-24T07:45:59;93464.28;;;7.69;94.01
39223;BME280;24936;46.328;11.026;2023-04-24T07:48:24;93468.34;;;7.81;93.26
39223;BME280;24936;46.328;11.026;2023-04-24T07:50:51;93461.16;;;7.84;93.24
39223;BME280;24936;46.328;11.026;2023-04-24T07:53:17;93458.19;;;7.96;93.79
39223;BME280;24936;46.328;11.026;2023-04-24T07:55:42;93437.53;;;7.93;93.89
39223;BME280;24936;46.328;11.026;2023-04-24T07:58:08;93445.84;;;8.07;93.54
39223;BME280;24936;46.328;11.026;2023-04-24T08:00:34;93451.03;;;8.17;92.58
39223;BME280;24936;46.328;11.026;2023-04-24T08:03:00;93449.00;;;8.29;93.53
39223;BME280;24936;46.328;11.026;2023-04-24T08:05:25;93450.50;;;8.49;93.47
39223;BME280;24936;46.328;11.026;2023-04-24T08:07:52;93445.84;;;8.07;91.44
39223;BME280;24936;46.328;11.026;2023-04-24T08:10:18;93437.78;;;8.54;90.67
39223;BME280;24936;46.328;11.026;2023-04-24T08:12:44;93437.72;;;8.72;90.36
39223;BME280;24936;46.328;11.026;2023-04-24T08:15:10;93436.63;;;8.57;88.03
39223;BME280;24936;46.328;11.026;2023-04-24T08:17:35;93448.81;;;8.84;87.88
39223;BME280;24936;46.328;11.026;2023-04-24T08:20:02;93442.31;;;8.97;87.67
39223;BME280;24936;46.328;11.026;2023-04-24T08:22:29;93438.91;;;8.78;86.06
39223;BME280;24936;46.328;11.026;2023-04-24T08:24:54;93441.94;;;8.47;82.22
39223;BME280;24936;46.328;11.026;2023-04-24T08:27:21;93435.09;;;8.72;85.31
39223;BME280;24936;46.328;11.026;2023-04-24T08:29:46;93431.16;;;8.95;87.71
39223;BME280;24936;46.328;11.026;2023-04-24T08:32:12;93419.97;;;8.93;84.44
39223;BME280;24936;46.328;11.026;2023-04-24T08:34:37;93428.38;;;8.70;84.56
39223;BME280;24936;46.328;11.026;2023-04-24T08:37:03;93417.75;;;8.53;82.97
39223;BME280;24936;46.328;11.026;2023-04-24T08:39:28;93428.75;;;8.57;89.49
39223;BME280;24936;46.328;11.026;2023-04-24T08:41:55;93421.81;;;8.74;92.47
39223;BME280;24936;46.328;11.026;2023-04-24T08:44:21;93428.41;;;8.78;93.50
39223;BME280;24936;46.328;11.026;2023-04-24T08:46:49;93423.53;;;8.83;94.49
39223;BME280;24936;46.328;11.026;2023-04-24T08:49:17;93427.00;;;8.92;94.44
39223;BME280;24936;46.328;11.026;2023-04-24T08:51:44;93419.88;;;8.76;94.42
39223;BME280;24936;46.328;11.026;2023-04-24T08:54:11;93419.69;;;8.96;94.43
39223;BME280;24936;46.328;11.026;2023-04-24T08:56:38;93411.75;;;8.87;94.09
39223;BME280;24936;46.328;11.026;2023-04-24T08:59:06;93416.56;;;9.00;93.85
39223;BME280;24936;46.328;11.026;2023-04-24T09:01:32;93428.56;;;9.03;93.37
39223;BME280;24936;46.328;11.026;2023-04-24T09:04:01;93431.81;;;8.97;92.85
39223;BME280;24936;46.328;11.026;2023-04-24T09:06:28;93427.81;;;8.84;92.36
39223;BME280;24936;46.328;11.026;2023-04-24T09:08:53;93427.47;;;9.14;92.83
39223;BME280;24936;46.328;11.026;2023-04-24T09:11:21;93436.63;;;9.10;92.50
39223;BME280;24936;46.328;11.026;2023-04-24T09:13:48;93429.41;;;9.03;91.65
39223;BME280;24936;46.328;11.026;2023-04-24T09:16:14;93433.88;;;9.11;91.71
39223;BME280;24936;46.328;11.026;2023-04-24T09:18:40;93432.09;;;9.20;92.03
39223;BME280;24936;46.328;11.026;2023-04-24T09:21:09;93432.16;;;9.37;91.05
39223;BME280;24936;46.328;11.026;2023-04-24T09:23:35;93436.72;;;9.26;89.97
39223;BME280;24936;46.328;11.026;2023-04-24T09:26:02;93434.97;;;9.43;89.66
39223;BME280;24936;46.328;11.026;2023-04-24T09:28:37;93434.66;;;9.38;89.20
39223;BME280;24936;46.328;11.026;2023-04-24T09:31:19;93440.03;;;9.28;87.86
39223;BME280;24936;46.328;11.026;2023-04-24T09:34:04;93443.63;;;9.27;86.49
39223;BME280;24936;46.328;11.026;2023-04-24T09:36:38;93438.25;;;9.37;87.30
39223;BME280;24936;46.328;11.026;2023-04-24T09:39:14;93438.34;;;9.62;87.45
39223;BME280;24936;46.328;11.026;2023-04-24T09:41:49;93438.59;;;9.93;85.14
39223;BME280;24936;46.328;11.026;2023-04-24T09:46:44;93443.44;;;10.23;83.04
39223;BME280;24936;46.328;11.026;2023-04-24T09:49:14;93435.06;;;9.68;82.34
39223;BME280;24936;46.328;11.026;2023-04-24T09:51:42;93438.22;;;10.73;79.81
39223;BME280;24936;46.328;11.026;2023-04-24T09:54:13;93435.38;;;11.07;80.53
39223;BME280;24936;46.328;11.026;2023-04-24T09:56:42;93439.38;;;11.43;78.81
39223;BME280;24936;46.328;11.026;2023-04-24T09:59:09;93437.84;;;11.57;77.93
39223;BME280;24936;46.328;11.026;2023-04-24T10:01:34;93437.56;;;12.23;76.43
39223;BME280;24936;46.328;11.026;2023-04-24T10:04:00;93438.50;;;11.99;76.76
39223;BME280;24936;46.328;11.026;2023-04-24T10:06:35;93440.66;;;12.27;77.64
39223;BME280;24936;46.328;11.026;2023-04-24T10:09:02;93432.63;;;12.20;74.23
39223;BME280;24936;46.328;11.026;2023-04-24T10:11:29;93422.31;;;13.10;74.28
39223;BME280;24936;46.328;11.026;2023-04-24T10:13:55;93423.63;;;13.29;74.84
39223;BME280;24936;46.328;11.026;2023-04-24T10:16:23;93431.97;;;13.18;73.42
39223;BME280;24936;46.328;11.026;2023-04-24T10:18:49;93428.25;;;12.74;71.11
39223;BME280;24936;46.328;11.026;2023-04-24T10:21:15;93432.22;;;12.54;72.97
39223;BME280;24936;46.328;11.026;2023-04-24T10:23:42;93430.66;;;11.82;75.18
39223;BME280;24936;46.328;11.026;2023-04-24T10:26:10;93430.56;;;11.67;74.98
39223;BME280;24936;46.328;11.026;2023-04-24T10:28:47;93427.41;;;11.72;74.67
39223;BME280;24936;46.328;11.026;2023-04-24T10:31:16;93422.34;;;12.02;73.10
39223;BME280;24936;46.328;11.026;2023-04-24T10:33:43;93423.53;;;12.22;73.94
39223;BME280;24936;46.328;11.026;2023-04-24T10:36:11;93421.66;;;12.31;74.17
39223;BME280;24936;46.328;11.026;2023-04-24T10:38:40;93418.13;;;12.62;73.21
39223;BME280;24936;46.328;11.026;2023-04-24T10:43:34;93429.00;;;12.67;71.20
39223;BME280;24936;46.328;11.026;2023-04-24T10:46:05;93414.91;;;12.90;72.05
39223;BME280;24936;46.328;11.026;2023-04-24T10:48:32;93424.16;;;13.09;70.07
39223;BME280;24936;46.328;11.026;2023-04-24T10:50:58;93412.22;;;12.75;70.00
39223;BME280;24936;46.328;11.026;2023-04-24T10:53:27;93419.06;;;13.23;71.13
39223;BME280;24936;46.328;11.026;2023-04-24T10:56:04;93416.94;;;13.33;68.62
39223;BME280;24936;46.328;11.026;2023-04-24T10:58:41;93411.25;;;13.59;66.89
39223;BME280;24936;46.328;11.026;2023-04-24T11:01:26;93417.44;;;14.03;66.60
39223;BME280;24936;46.328;11.026;2023-04-24T11:03:58;93412.22;;;15.25;63.04
39223;BME280;24936;46.328;11.026;2023-04-24T11:06:31;93411.63;;;15.58;61.41
39223;BME280;24936;46.328;11.026;2023-04-24T11:09:08;93410.56;;;15.53;64.25
39223;BME280;24936;46.328;11.026;2023-04-24T11:11:37;93413.25;;;15.95;63.41
39223;BME280;24936;46.328;11.026;2023-04-24T11:14:06;93408.25;;;15.43;61.82
39223;BME280;24936;46.328;11.026;2023-04-24T11:16:33;93412.41;;;16.83;59.79
39223;BME280;24936;46.328;11.026;2023-04-24T11:27:09;93406.47;;;16.61;59.06
39223;BME280;24936;46.328;11.026;2023-04-24T11:30:02;93403.06;;;15.98;61.34
39223;BME280;24936;46.328;11.026;2023-04-24T11:32:30;93402.38;;;15.48;61.44
39223;BME280;24936;46.328;11.026;2023-04-24T11:34:58;93408.66;;;15.82;60.83
39223;BME280;24936;46.328;11.026;2023-04-24T11:39:59;93401.19;;;17.28;58.35
39223;BME280;24936;46.328;11.026;2023-04-24T11:42:24;93396.00;;;17.60;55.97
39223;BME280;24936;46.328;11.026;2023-04-24T11:44:54;93404.66;;;17.22;56.63
39223;BME280;24936;46.328;11.026;2023-04-24T11:47:32;93392.13;;;17.56;56.09
39223;BME280;24936;46.328;11.026;2023-04-24T11:49:59;93390.34;;;17.09;58.16
39223;BME280;24936;46.328;11.026;2023-04-24T11:52:29;93395.25;;;17.19;59.19
39223;BME280;24936;46.328;11.026;2023-04-24T11:54:55;93393.22;;;17.08;55.59
39223;BME280;24936;46.328;11.026;2023-04-24T11:57:24;93391.19;;;17.17;56.71
39223;BME280;24936;46.328;11.026;2023-04-24T11:59:52;93396.97;;;18.31;54.42
39223;BME280;24936;46.328;11.026;2023-04-24T12:02:24;93393.34;;;18.83;54.53
39223;BME280;24936;46.328;11.026;2023-04-24T12:04:52;93386.44;;;18.04;52.98
39223;BME280;24936;46.328;11.026;2023-04-24T12:07:17;93382.50;;;19.10;57.00
39223;BME280;24936;46.328;11.026;2023-04-24T12:10:09;93376.84;;;19.44;52.19
39223;BME280;24936;46.328;11.026;2023-04-24T12:12:35;93378.41;;;19.51;51.95
39223;BME280;24936;46.328;11.026;2023-04-24T12:15:01;93378.81;;;19.11;50.78
39223;BME280;24936;46.328;11.026;2023-04-24T12:17:31;93366.88;;;19.14;53.09
39223;BME280;24936;46.328;11.026;2023-04-24T12:20:04;93377.41;;;18.06;56.88
39223;BME280;24936;46.328;11.026;2023-04-24T12:22:51;93379.31;;;18.69;52.78
39223;BME280;24936;46.328;11.026;2023-04-24T12:25:20;93363.94;;;19.22;49.48
39223;BME280;24936;46.328;11.026;2023-04-24T12:27:50;93364.34;;;19.81;51.23
39223;BME280;24936;46.328;11.026;2023-04-24T12:30:18;93363.78;;;19.98;49.26
39223;BME280;24936;46.328;11.026;2023-04-24T12:32:49;93360.19;;;20.04;49.95
39223;BME280;24936;46.328;11.026;2023-04-24T12:35:22;93358.59;;;20.76;47.00
39223;BME280;24936;46.328;11.026;2023-04-24T12:37:48;93361.31;;;21.23;50.92
39223;BME280;24936;46.328;11.026;2023-04-24T12:40:16;93353.38;;;19.90;48.28
39223;BME280;24936;46.328;11.026;2023-04-24T12:42:43;93345.94;;;20.83;51.96
39223;BME280;24936;46.328;11.026;2023-04-24T12:45:09;93340.84;;;20.82;51.47
39223;BME280;24936;46.328;11.026;2023-04-24T12:47:38;93341.06;;;20.92;44.75
39223;BME280;24936;46.328;11.026;2023-04-24T12:50:04;93336.06;;;20.41;48.43
39223;BME280;24936;46.328;11.026;2023-04-24T12:52:30;93333.84;;;20.38;45.08
39223;BME280;24936;46.328;11.026;2023-04-24T12:54:58;93332.44;;;20.36;46.60
39223;BME280;24936;46.328;11.026;2023-04-24T12:57:25;93334.22;;;20.42;48.62
39223;BME280;24936;46.328;11.026;2023-04-24T12:59:54;93328.63;;;21.21;42.85
39223;BME280;24936;46.328;11.026;2023-04-24T13:02:22;93328.91;;;20.54;44.43
39223;BME280;24936;46.328;11.026;2023-04-24T13:04:48;93330.91;;;19.41;48.43
39223;BME280;24936;46.328;11.026;2023-04-24T13:07:13;93329.25;;;18.46;52.17
39223;BME280;24936;46.328;11.026;2023-04-24T13:09:40;93327.66;;;18.13;50.62
39223;BME280;24936;46.328;11.026;2023-04-24T13:12:07;93331.66;;;19.49;45.53